Time;durP1;ratioP1;P1;durP2;ratioP2;P2;SDS_P1;SDS_P2;PMS_P1;PMS_P2;Temp;Humidity;BMP_temperature;BMP_pressure;BME280_temperature;BME280_humidity;BME280_pressure;Samples;Min_cycle;Max_cycle;Signal;HPM_P1;HPM_P2
2023/10/09 00:01:31;;;;;;;7.97;3.28;;;14.30;99.90;;;;;;4991861;28;20229;-74
2023/10/09 00:04:01;;;;;;;6.90;3.20;;;;;;;;;;4991917;28;20319;-74
2023/10/09 00:06:38;;;;;;;5.15;3.00;;;14.50;99.90;;;;;;4991398;28;20226;-74
2023/10/09 00:11:56;;;;;;;7.90;3.03;;;14.40;99.90;;;;;;4991620;28;20203;-74
2023/10/09 00:14:22;;;;;;;4.97;2.88;;;14.60;99.90;;;;;;4991790;28;20171;-74
2023/10/09 00:16:55;;;;;;;11.50;4.30;;;;;;;;;;4991683;28;20668;-74
2023/10/09 00:19:30;;;;;;;11.30;5.20;;;;;;;;;;4991710;28;20201;-74
2023/10/09 00:21:58;;;;;;;7.93;3.80;;;;;;;;;;4991692;28;20170;-74
2023/10/09 00:24:24;;;;;;;10.95;4.45;;;;;;;;;;4991814;28;20234;-74
2023/10/09 00:27:02;;;;;;;9.75;3.78;;;15.20;99.90;;;;;;4974029;28;20179;-74
2023/10/09 00:29:34;;;;;;;6.95;3.40;;;;;;;;;;4991334;28;20214;-74
2023/10/09 00:32:13;;;;;;;10.73;3.63;;;;;;;;;;4991417;28;20179;-73
2023/10/09 00:34:41;;;;;;;5.97;3.22;;;14.80;99.90;;;;;;4991510;28;20637;-73
2023/10/09 00:37:22;;;;;;;8.73;3.22;;;14.60;99.90;;;;;;4991505;28;20190;-74
2023/10/09 00:39:55;;;;;;;7.63;3.33;;;14.70;99.90;;;;;;4991473;28;20642;-73
2023/10/09 00:42:27;;;;;;;10.02;3.20;;;14.50;99.90;;;;;;4994807;28;20175;-73
2023/10/09 00:44:53;;;;;;;5.85;3.20;;;;;;;;;;4978871;28;20229;-73
2023/10/09 00:47:26;;;;;;;6.70;3.20;;;;;;;;;;4995556;28;20257;-73
2023/10/09 00:50:00;;;;;;;9.60;3.53;;;14.10;99.90;;;;;;4977909;28;20692;-73
2023/10/09 00:52:33;;;;;;;13.43;3.10;;;14.10;99.90;;;;;;4995567;28;20241;-73
2023/10/09 00:55:08;;;;;;;9.13;3.85;;;14.30;99.90;;;;;;4995501;28;20178;-73
2023/10/09 00:57:37;;;;;;;6.15;3.10;;;14.10;99.90;;;;;;4995216;28;20580;-73
2023/10/09 01:00:24;;;;;;;11.48;3.60;;;13.80;99.90;;;;;;4995327;28;20207;-73
2023/10/09 01:03:10;;;;;;;6.15;3.47;;;14.20;99.90;;;;;;4977795;28;20171;-73
2023/10/09 01:05:37;;;;;;;7.10;3.03;;;13.90;99.90;;;;;;4995053;28;20219;-73
2023/10/09 01:08:16;;;;;;;9.25;4.60;;;;;;;;;;4995264;28;20182;-73
2023/10/09 01:10:53;;;;;;;9.18;3.88;;;13.80;99.90;;;;;;4995102;28;20214;-73
2023/10/09 01:13:19;;;;;;;6.97;3.45;;;;;;;;;;4995046;28;20194;-73
2023/10/09 01:15:45;;;;;;;8.18;4.10;;;13.90;99.90;;;;;;4977721;28;20187;-73
2023/10/09 01:18:12;;;;;;;11.13;5.03;;;13.90;99.90;;;;;;4995253;28;20191;-73
2023/10/09 01:20:43;;;;;;;10.27;4.40;;;;;;;;;;4995137;28;20180;-73
2023/10/09 01:23:10;;;;;;;7.18;4.30;;;14.00;99.90;;;;;;4994822;28;20550;-73
2023/10/09 01:25:45;;;;;;;10.98;4.80;;;;;;;;;;4995037;28;20179;-75
2023/10/09 01:28:15;;;;;;;7.30;4.35;;;14.10;99.90;;;;;;4994830;28;20181;-73
2023/10/09 01:30:45;;;;;;;8.43;4.75;;;14.00;99.90;;;;;;4994757;28;20281;-73
2023/10/09 01:33:26;;;;;;;10.18;4.40;;;14.20;99.90;;;;;;4994762;28;20198;-73
2023/10/09 01:35:58;;;;;;;10.10;5.25;;;13.90;99.90;;;;;;4977112;28;20529;-73
2023/10/09 01:38:31;;;;;;;7.75;4.40;;;13.80;99.90;;;;;;4994708;28;20262;-73
2023/10/09 01:41:06;;;;;;;9.48;4.70;;;;;;;;;;4994634;28;20523;-73
2023/10/09 01:43:34;;;;;;;9.57;4.93;;;14.00;99.90;;;;;;4994680;28;20183;-74
2023/10/09 01:46:01;;;;;;;12.02;4.75;;;;;;;;;;4994595;28;20265;-74
2023/10/09 01:48:27;;;;;;;7.38;3.92;;;13.90;99.90;;;;;;4994606;28;20245;-73
2023/10/09 01:50:53;;;;;;;9.70;4.68;;;;;;;;;;4976865;28;20272;-73
2023/10/09 01:53:22;;;;;;;9.80;5.43;;;13.70;99.90;;;;;;4976475;28;20172;-73
2023/10/09 01:55:49;;;;;;;13.10;5.15;;;;;;;;;;4994381;28;20540;-73
2023/10/09 02:00:48;;;;;;;11.40;4.43;;;;;;;;;;4994232;28;20522;-73
2023/10/09 02:03:18;;;;;;;8.18;4.70;;;;;;;;;;4994500;28;20175;-72
2023/10/09 02:05:45;;;;;;;14.10;5.35;;;;;;;;;;4994024;28;20689;-72
2023/10/09 02:08:11;;;;;;;13.05;5.40;;;13.80;99.90;;;;;;4994104;28;20230;-75
2023/10/09 02:10:39;;;;;;;12.23;5.30;;;;;;;;;;4994047;28;20294;-72
2023/10/09 02:13:09;;;;;;;12.00;5.82;;;13.90;99.90;;;;;;4994002;28;20172;-72
2023/10/09 02:15:56;;;;;;;11.80;5.53;;;13.70;99.90;;;;;;4993960;28;20229;-73
2023/10/09 02:21:12;;;;;;;12.50;5.72;;;13.70;99.90;;;;;;4994015;28;20175;-73
2023/10/09 02:26:06;;;;;;;10.27;4.68;;;;;;;;;;4993851;28;20541;-73
2023/10/09 02:28:35;;;;;;;9.15;4.78;;;13.60;99.90;;;;;;4993700;28;20175;-73
2023/10/09 02:31:11;;;;;;;7.93;4.72;;;12.70;99.90;;;;;;4991614;28;20242;-73
2023/10/09 02:33:39;;;;;;;13.82;4.90;;;;;;;;;;4993460;28;20261;-73
2023/10/09 02:36:08;;;;;;;13.40;4.68;;;13.70;99.90;;;;;;4993354;28;20167;-73
2023/10/09 02:38:37;;;;;;;9.75;5.68;;;13.60;99.90;;;;;;4993544;28;20183;-73
2023/10/09 02:43:50;;;;;;;11.27;4.82;;;13.80;99.90;;;;;;4993565;28;20226;-73
2023/10/09 02:46:20;;;;;;;11.70;5.43;;;13.70;99.90;;;;;;4993332;28;20211;-73
2023/10/09 02:48:52;;;;;;;9.52;4.95;;;13.70;99.90;;;;;;4993329;28;20183;-73
2023/10/09 02:53:59;;;;;;;10.40;5.05;;;;;;;;;;4993359;28;20171;-73
2023/10/09 02:56:38;;;;;;;9.15;4.72;;;14.00;99.90;;;;;;4992802;28;20717;-73
2023/10/09 02:59:06;;;;;;;10.85;4.78;;;13.70;99.90;;;;;;4993095;28;20183;-74
2023/10/09 03:01:34;;;;;;;8.43;4.85;;;13.50;99.90;;;;;;4992956;28;20183;-73
2023/10/09 03:04:02;;;;;;;9.32;4.65;;;;;;;;;;4992058;28;20164;-73
2023/10/09 03:06:31;;;;;;;12.98;5.22;;;13.80;99.90;;;;;;4992567;28;20286;-73
2023/10/09 03:09:00;;;;;;;10.10;5.28;;;13.80;99.90;;;;;;4992897;28;20266;-73
2023/10/09 03:11:28;;;;;;;9.57;5.00;;;13.80;99.90;;;;;;4992943;28;20259;-73
2023/10/09 03:13:54;;;;;;;10.52;4.53;;;13.70;99.90;;;;;;4975743;28;20175;-73
2023/10/09 03:16:20;;;;;;;9.18;4.90;;;13.80;99.90;;;;;;4992237;28;20205;-72
2023/10/09 03:18:52;;;;;;;13.00;5.30;;;13.80;99.90;;;;;;4992899;28;20164;-73
2023/10/09 03:21:18;;;;;;;14.63;5.57;;;;;;;;;;4975336;28;20229;-72
2023/10/09 03:23:49;;;;;;;10.27;5.20;;;13.70;99.90;;;;;;4992680;28;20672;-73
2023/10/09 03:26:19;;;;;;;10.32;5.07;;;13.70;99.90;;;;;;4977300;28;20167;-73
2023/10/09 03:28:49;;;;;;;11.02;4.65;;;13.80;99.90;;;;;;4992554;28;20183;-73
2023/10/09 03:31:14;;;;;;;12.45;5.07;;;14.00;99.90;;;;;;4992033;28;20266;-73
2023/10/09 03:33:40;;;;;;;9.60;5.68;;;13.90;99.90;;;;;;4992372;28;20261;-72
2023/10/09 03:36:09;;;;;;;8.05;4.70;;;14.10;99.90;;;;;;4974658;28;20270;-72
2023/10/09 03:38:40;;;;;;;9.35;4.60;;;14.00;99.90;;;;;;4992449;28;20175;-72
2023/10/09 03:41:06;;;;;;;11.85;6.75;;;;;;;;;;4992081;28;20179;-72
2023/10/09 03:43:39;;;;;;;18.48;9.52;;;;;;;;;;4992266;28;20648;-72
2023/10/09 03:46:20;;;;;;;17.45;7.60;;;14.40;99.90;;;;;;4991783;28;20171;-74
2023/10/09 03:48:47;;;;;;;19.98;11.13;;;14.50;99.90;;;;;;4992220;28;20673;-73
2023/10/09 03:51:21;;;;;;;20.42;11.18;;;14.80;99.90;;;;;;4991966;28;20219;-73
2023/10/09 03:53:48;;;;;;;20.67;10.85;;;15.00;99.90;;;;;;4992340;28;20194;-73
2023/10/09 03:56:17;;;;;;;16.55;10.45;;;14.90;99.90;;;;;;4975817;28;20217;-73
2023/10/09 03:58:54;;;;;;;17.60;10.10;;;14.80;99.90;;;;;;4974383;28;20251;-73
2023/10/09 04:01:37;;;;;;;18.83;11.20;;;15.00;99.90;;;;;;4991615;28;20166;-73
2023/10/09 04:04:06;;;;;;;18.42;10.38;;;15.20;99.90;;;;;;4992020;28;20649;-73
2023/10/09 04:06:33;;;;;;;15.60;10.38;;;15.10;99.90;;;;;;4991638;28;20235;-73
2023/10/09 04:09:13;;;;;;;16.45;10.65;;;15.10;99.90;;;;;;4992338;28;20205;-72
2023/10/09 04:11:42;;;;;;;22.75;11.65;;;15.20;99.90;;;;;;4991852;28;20175;-73
2023/10/09 04:14:12;;;;;;;19.85;12.43;;;;;;;;;;4991775;28;20190;-73
2023/10/09 04:16:51;;;;;;;24.48;12.43;;;15.30;99.90;;;;;;4991823;28;20183;-73
2023/10/09 04:19:21;;;;;;;21.27;12.38;;;15.20;99.90;;;;;;4991824;28;20183;-73
2023/10/09 04:21:48;;;;;;;18.08;12.15;;;;;;;;;;4991853;28;20254;-73
2023/10/09 04:26:44;;;;;;;20.08;12.05;;;15.50;99.90;;;;;;4992023;28;20171;-74
2023/10/09 04:29:18;;;;;;;17.45;11.75;;;15.40;99.90;;;;;;4991713;28;20194;-74
2023/10/09 04:31:51;;;;;;;24.50;12.50;;;15.70;99.90;;;;;;4991683;28;20270;-74
2023/10/09 04:37:17;;;;;;;21.63;13.25;;;15.40;99.90;;;;;;4991656;28;20171;-74
2023/10/09 04:39:49;;;;;;;23.85;13.30;;;15.60;99.90;;;;;;4991799;28;20526;-74
2023/10/09 04:45:20;;;;;;;22.35;12.15;;;15.60;99.90;;;;;;4989582;28;20190;-74
2023/10/09 04:48:06;;;;;;;26.63;12.55;;;15.70;99.90;;;;;;4982808;28;20209;-74
2023/10/09 04:50:36;;;;;;;23.90;13.05;;;;;;;;;;4991173;28;20233;-74
2023/10/09 04:55:44;;;;;;;24.10;12.85;;;15.60;99.90;;;;;;4991235;28;20593;-74
2023/10/09 04:58:23;;;;;;;22.08;13.32;;;16.00;99.90;;;;;;4991501;28;20175;-74
2023/10/09 05:01:02;;;;;;;24.13;13.02;;;15.90;99.90;;;;;;4991376;28;20182;-74
2023/10/09 05:03:29;;;;;;;27.25;12.80;;;15.80;99.90;;;;;;4990668;28;20179;-75
2023/10/09 05:05:58;;;;;;;23.38;12.70;;;15.80;99.90;;;;;;4991000;28;20477;-75
2023/10/09 05:08:29;;;;;;;23.08;13.10;;;15.90;99.90;;;;;;4973293;28;20583;-75
2023/10/09 05:16:28;;;;;;;25.23;13.38;;;15.80;99.90;;;;;;4971833;28;20183;-74
2023/10/09 05:19:20;;;;;;;22.75;12.65;;;15.70;99.90;;;;;;4971781;28;20172;-73
2023/10/09 05:21:53;;;;;;;23.35;12.70;;;;;;;;;;4954621;28;20554;-73
2023/10/09 05:24:19;;;;;;;24.60;13.73;;;16.00;99.90;;;;;;4971578;28;20577;-74
2023/10/09 05:29:19;;;;;;;24.35;13.05;;;15.80;99.90;;;;;;4994750;28;20627;-74
2023/10/09 05:34:21;;;;;;;21.00;12.70;;;15.80;99.90;;;;;;4994831;28;20163;-73
2023/10/09 05:36:47;;;;;;;20.83;12.93;;;15.80;99.90;;;;;;4994560;28;20183;-73
2023/10/09 05:39:30;;;;;;;23.25;12.90;;;15.90;99.90;;;;;;4994344;28;20230;-74
2023/10/09 05:42:08;;;;;;;22.75;12.18;;;15.80;99.90;;;;;;4994477;28;20664;-74
2023/10/09 05:47:31;;;;;;;23.15;12.65;;;15.70;99.90;;;;;;4994461;28;20183;-74
2023/10/09 05:53:34;;;;;;;23.40;13.20;;;15.70;99.90;;;;;;4971148;28;20342;-73
2023/10/09 06:01:06;;;;;;;24.60;12.90;;;15.70;99.90;;;;;;4993975;28;20197;-73
2023/10/09 06:04:15;;;;;;;20.50;12.43;;;15.70;99.90;;;;;;4994177;28;20545;-74
2023/10/09 06:06:44;;;;;;;22.88;13.15;;;16.00;99.90;;;;;;4993832;28;20241;-74
2023/10/09 06:11:42;;;;;;;24.73;12.95;;;15.70;99.90;;;;;;4993722;28;20245;-73
2023/10/09 06:16:43;;;;;;;20.00;12.52;;;15.60;99.90;;;;;;4993242;28;20186;-74
2023/10/09 06:24:25;;;;;;;24.48;12.95;;;15.80;99.90;;;;;;4989920;28;20187;-74
2023/10/09 06:29:36;;;;;;;21.77;12.60;;;15.60;99.90;;;;;;4994474;28;20673;-74
2023/10/09 06:34:51;;;;;;;22.30;12.93;;;15.50;99.90;;;;;;4993625;28;20638;-73
2023/10/09 06:55:48;;;;;;;22.85;13.45;;;15.70;99.90;;;;;;4993179;28;20187;-73
2023/10/09 06:58:41;;;;;;;22.10;12.88;;;15.80;99.90;;;;;;4992894;28;20173;-74
2023/10/09 07:01:28;;;;;;;20.52;11.68;;;15.90;99.90;;;;;;4993081;28;20265;-73
2023/10/09 07:04:18;;;;;;;22.48;12.05;;;15.80;99.90;;;;;;4992821;28;20199;-72
2023/10/09 07:17:15;;;;;;;19.88;11.50;;;16.00;99.90;;;;;;4992573;28;20569;-73
2023/10/09 07:25:14;;;;;;;18.25;11.30;;;16.10;99.90;;;;;;4956227;28;20188;-73
2023/10/09 07:27:43;;;;;;;25.70;12.27;;;15.80;99.90;;;;;;4991939;28;20177;-74
2023/10/09 07:38:09;;;;;;;23.17;11.95;;;16.30;99.90;;;;;;4989609;28;20172;-73
2023/10/09 07:40:54;;;;;;;18.88;11.20;;;16.30;99.90;;;;;;4991569;28;20181;-72
2023/10/09 07:43:25;;;;;;;20.83;11.15;;;16.20;99.90;;;;;;4991529;28;20170;-73
2023/10/09 07:46:30;;;;;;;24.52;11.65;;;16.40;99.90;;;;;;4991730;28;20180;-73
2023/10/09 07:48:51;;;;;;;20.38;11.23;;;16.40;99.90;;;;;;4991387;28;20182;-73
2023/10/09 07:51:22;;;;;;;19.83;11.38;;;16.60;99.90;;;;;;4989914;28;20203;-73
2023/10/09 07:53:49;;;;;;;21.17;11.32;;;16.60;99.90;;;;;;4992273;28;20174;-73
2023/10/09 07:56:20;;;;;;;20.90;11.55;;;16.60;99.90;;;;;;4974541;28;20202;-73
2023/10/09 07:58:47;;;;;;;18.90;10.95;;;16.70;99.90;;;;;;4973078;28;20271;-73
2023/10/09 08:03:39;;;;;;;20.95;12.57;;;16.50;99.90;;;;;;4991341;28;20183;-73
2023/10/09 08:19:54;;;;;;;22.75;11.15;;;17.20;99.90;;;;;;4991758;28;20232;-73
2023/10/09 08:24:56;;;;;;;23.38;11.07;;;17.00;99.90;;;;;;4991190;28;20645;-72
2023/10/09 08:33:39;;;;;;;20.45;11.75;;;17.40;99.90;;;;;;4991821;28;20262;-73
2023/10/09 08:35:55;;;;;;;21.58;11.18;;;17.50;99.90;;;;;;4982990;28;20187;-72
2023/10/09 08:38:24;;;;;;;25.23;11.88;;;17.40;99.90;;;;;;4977931;28;20168;-73
2023/10/09 08:40:58;;;;;;;25.10;11.80;;;18.00;99.90;;;;;;4980432;28;20172;-73
2023/10/09 08:43:24;;;;;;;25.63;11.75;;;17.70;99.90;;;;;;4983786;28;20207;-73
2023/10/09 08:46:00;;;;;;;21.20;12.27;;;17.80;99.90;;;;;;4990384;28;20171;-73
2023/10/09 08:48:27;;;;;;;17.98;9.57;;;17.90;99.90;;;;;;4981829;28;20526;-75
2023/10/09 08:50:54;;;;;;;22.27;9.63;;;17.80;99.90;;;;;;4982056;28;20220;-72
2023/10/09 08:53:21;;;;;;;22.75;9.02;;;;;;;;;;4979981;28;20203;-73
2023/10/09 08:55:47;;;;;;;15.43;8.18;;;17.60;99.90;;;;;;4973894;28;20187;-74
2023/10/09 08:58:24;;;;;;;20.90;8.48;;;17.30;99.90;;;;;;4970824;28;20221;-73
2023/10/09 09:00:51;;;;;;;16.52;8.07;;;17.60;99.90;;;;;;4990264;28;20714;-74
2023/10/09 09:03:22;;;;;;;16.70;8.10;;;17.50;99.90;;;;;;4993917;28;20179;-74
2023/10/09 09:06:02;;;;;;;18.70;8.02;;;17.70;99.90;;;;;;4994630;28;20270;-74
2023/10/09 09:08:29;;;;;;;15.35;7.55;;;17.90;99.90;;;;;;4994428;28;20177;-72
2023/10/09 09:11:35;;;;;;;14.38;7.47;;;17.70;99.90;;;;;;4994665;28;20207;-75
2023/10/09 09:14:05;;;;;;;21.40;7.35;;;18.10;99.90;;;;;;4993759;28;20187;-75
2023/10/09 09:16:34;;;;;;;16.95;7.50;;;17.90;99.90;;;;;;4994852;28;20175;-74
2023/10/09 09:21:44;;;;;;;13.88;6.82;;;18.30;99.90;;;;;;4983179;28;20179;-74
2023/10/09 09:26:46;;;;;;;22.27;7.13;;;18.50;99.90;;;;;;4995024;28;20639;-74
2023/10/09 09:29:18;;;;;;;19.00;6.43;;;18.50;99.90;;;;;;4992603;28;20186;-75
2023/10/09 09:32:15;;;;;;;11.88;6.60;;;18.70;99.90;;;;;;4989637;28;20261;-76
2023/10/09 09:34:56;;;;;;;13.40;6.32;;;18.80;99.90;;;;;;4994034;28;20237;-75
2023/10/09 09:37:50;;;;;;;18.95;6.95;;;19.10;99.90;;;;;;4994540;28;20171;-75
2023/10/09 09:40:29;;;;;;;11.55;6.35;;;19.20;99.90;;;;;;4994016;28;20258;-76
2023/10/09 09:43:07;;;;;;;15.68;6.32;;;20.30;99.90;;;;;;4974831;28;20191;-75
2023/10/09 09:45:35;;;;;;;17.60;7.22;;;19.30;99.90;;;;;;4989141;28;20648;-74
2023/10/09 09:48:11;;;;;;;12.98;6.95;;;19.00;99.90;;;;;;4993867;28;20704;-74
2023/10/09 09:50:43;;;;;;;12.20;7.13;;;18.90;99.90;;;;;;4989729;28;20213;-74
2023/10/09 09:53:14;;;;;;;18.55;7.00;;;19.10;99.90;;;;;;4980982;28;20248;-74
2023/10/09 09:55:51;;;;;;;11.57;6.53;;;19.00;99.90;;;;;;4974720;28;20182;-75
2023/10/09 09:58:20;;;;;;;15.35;6.70;;;19.20;99.90;;;;;;4979636;28;20225;-73
2023/10/09 10:00:52;;;;;;;14.85;6.75;;;19.00;99.90;;;;;;4994150;28;20207;-74
2023/10/09 10:03:25;;;;;;;21.42;6.32;;;19.10;99.90;;;;;;4976729;28;20202;-73
2023/10/09 10:05:52;;;;;;;10.18;5.55;;;19.40;99.90;;;;;;4976566;28;20309;-73
2023/10/09 10:08:21;;;;;;;10.07;6.25;;;19.30;99.90;;;;;;4994140;28;20676;-74
2023/10/09 10:10:52;;;;;;;13.55;6.70;;;19.40;99.90;;;;;;4993816;28;20203;-73
2023/10/09 10:13:21;;;;;;;10.63;6.15;;;19.50;99.90;;;;;;4992315;28;20555;-75
2023/10/09 10:16:02;;;;;;;12.10;6.00;;;19.60;99.90;;;;;;4977206;28;20539;-75
2023/10/09 10:18:32;;;;;;;10.88;5.22;;;19.50;99.90;;;;;;4994231;28;20283;-75
2023/10/09 10:21:29;;;;;;;10.80;5.38;;;19.50;99.90;;;;;;4994012;28;20182;-74
2023/10/09 10:24:02;;;;;;;14.38;5.30;;;19.30;99.90;;;;;;4994539;28;20175;-73
2023/10/09 10:26:29;;;;;;;11.32;5.07;;;19.20;99.90;;;;;;4995598;28;20191;-74
2023/10/09 10:29:24;;;;;;;12.55;5.43;;;19.80;99.90;;;;;;4994769;28;20183;-74
2023/10/09 10:31:56;;;;;;;10.73;4.90;;;19.60;99.90;;;;;;4996046;28;20187;-74
2023/10/09 10:34:26;;;;;;;9.68;4.82;;;20.20;99.90;;;;;;4995680;28;20214;-73
2023/10/09 10:36:58;;;;;;;14.32;6.15;;;20.50;99.90;;;;;;4994634;28;20176;-73
2023/10/09 10:39:45;;;;;;;9.30;4.40;;;20.40;99.90;;;;;;4994557;28;20179;-74
2023/10/09 10:45:02;;;;;;;11.32;5.05;;;20.30;99.90;;;;;;4994756;28;20198;-73
2023/10/09 10:47:35;;;;;;;9.60;4.78;;;20.30;99.90;;;;;;4993356;28;20175;-75
2023/10/09 10:52:57;;;;;;;10.68;4.90;;;20.90;99.90;;;;;;4993318;28;20186;-74
2023/10/09 10:58:01;;;;;;;11.35;4.47;;;20.30;99.90;;;;;;4992948;28;20182;-73
2023/10/09 11:06:15;;;;;;;8.40;4.25;;;23.60;99.90;;;;;;4991666;28;20271;-74
2023/10/09 11:09:35;;;;;;;10.93;4.47;;;26.20;99.90;;;;;;4991439;28;20179;-75
2023/10/09 11:11:42;;;;;;;12.85;4.35;;;27.10;99.90;;;;;;4983078;28;20309;-76
2023/10/09 11:14:14;;;;;;;10.77;4.53;;;28.00;99.90;;;;;;4991427;28;20233;-76
2023/10/09 11:16:41;;;;;;;11.40;4.22;;;28.50;99.90;;;;;;4992016;28;20187;-75
2023/10/09 11:21:58;;;;;;;8.82;3.90;;;27.20;99.90;;;;;;4992375;28;20210;-76
2023/10/09 11:24:37;;;;;;;7.95;4.22;;;29.90;1.00;;;;;;4992175;28;20180;-76
2023/10/09 11:27:06;;;;;;;9.90;3.83;;;28.70;1.00;;;;;;4992586;28;20211;-76
2023/10/09 11:32:22;;;;;;;8.52;4.13;;;30.50;99.90;;;;;;4993407;28;20170;-77
2023/10/09 11:35:08;;;;;;;8.85;3.60;;;29.30;99.90;;;;;;4993171;28;20641;-76
2023/10/09 11:37:42;;;;;;;6.72;3.65;;;30.20;56.00;;;;;;4992476;28;20202;-74
2023/10/09 11:41:19;;;;;;;7.95;3.45;;;32.10;1.00;;;;;;4992313;28;20657;-75
2023/10/09 11:43:51;;;;;;;8.80;3.90;;;31.90;1.00;;;;;;4981970;28;20237;-75
2023/10/09 11:46:13;;;;;;;7.45;3.70;;;31.80;99.90;;;;;;4993534;28;20211;-75
2023/10/09 11:49:14;;;;;;;9.98;3.40;;;31.90;1.00;;;;;;4995699;28;20171;-76
2023/10/09 11:51:37;;;;;;;10.70;3.53;;;32.10;1.00;;;;;;4995469;28;20218;-76
2023/10/09 11:54:03;;;;;;;7.68;3.67;;;31.20;1.00;;;;;;4996039;28;20167;-76
2023/10/09 11:56:29;;;;;;;10.40;3.42;;;32.80;1.00;;;;;;4993218;28;20293;-76
2023/10/09 11:58:58;;;;;;;7.40;3.67;;;32.80;1.00;;;;;;4992106;28;20531;-76
2023/10/09 12:01:25;;;;;;;10.82;3.80;;;33.60;1.00;;;;;;4982467;28;20171;-75
2023/10/09 12:03:52;;;;;;;4.63;2.95;;;32.70;1.00;;;;;;4993392;28;20198;-75
2023/10/09 12:06:19;;;;;;;6.40;3.40;;;32.40;1.00;;;;;;4992500;28;20218;-75
2023/10/09 12:08:49;;;;;;;8.18;4.25;;;32.10;99.90;;;;;;4991790;28;20170;-76
2023/10/09 12:11:28;;;;;;;6.82;3.83;;;33.30;99.90;;;;;;4990684;28;20305;-76
2023/10/09 12:13:57;;;;;;;11.70;4.20;;;32.80;99.90;;;;;;4992071;28;20174;-76
2023/10/09 12:16:27;;;;;;;14.05;6.53;;;32.50;99.90;;;;;;4974283;28;20691;-75
2023/10/09 12:18:54;;;;;;;22.60;16.00;;;33.30;99.90;;;;;;4989047;28;20171;-76
2023/10/09 12:21:20;;;;;;;23.60;15.73;;;33.60;99.90;;;;;;4986060;28;20186;-75
2023/10/09 12:23:47;;;;;;;17.60;12.75;;;33.80;1.00;;;;;;4991860;28;20166;-75
2023/10/09 12:26:16;;;;;;;8.82;5.32;;;33.30;1.00;;;;;;4991204;28;20181;-75
2023/10/09 12:28:49;;;;;;;6.43;3.15;;;33.10;99.90;;;;;;4991430;28;20677;-75
2023/10/09 12:31:19;;;;;;;9.20;3.22;;;32.60;1.00;;;;;;4991523;28;20269;-74
2023/10/09 12:33:46;;;;;;;9.75;3.65;;;32.90;1.00;;;;;;4987185;28;20175;-75
2023/10/09 12:36:19;;;;;;;7.85;3.30;;;32.80;1.00;;;;;;4991132;28;20189;-75
2023/10/09 12:38:50;;;;;;;7.10;3.38;;;32.80;1.00;;;;;;4991319;28;20175;-75
2023/10/09 12:41:26;;;;;;;10.18;3.58;;;33.60;1.00;;;;;;4991462;28;20175;-76
2023/10/09 12:43:52;;;;;;;7.72;3.90;;;33.10;1.00;;;;;;4990878;28;20229;-75
2023/10/09 12:46:25;;;;;;;13.20;3.50;;;33.30;1.00;;;;;;4991254;28;20186;-75
2023/10/09 12:48:54;;;;;;;6.93;3.70;;;33.30;99.90;;;;;;4987408;28;20207;-75
2023/10/09 12:51:25;;;;;;;7.78;3.38;;;32.20;1.00;;;;;;4987092;28;20570;-74
2023/10/09 12:53:56;;;;;;;8.68;2.92;;;32.40;99.90;;;;;;4990689;28;20170;-75
2023/10/09 12:56:32;;;;;;;6.38;3.38;;;31.80;99.90;;;;;;4990728;28;20170;-74
2023/10/09 12:59:04;;;;;;;7.57;3.28;;;32.60;99.90;;;;;;4990183;28;20190;-74
2023/10/09 13:01:31;;;;;;;4.38;2.58;;;32.50;1.00;;;;;;4991522;28;20319;-74
2023/10/09 13:04:00;;;;;;;5.00;2.70;;;33.10;1.00;;;;;;4991859;28;20174;-74
2023/10/09 13:06:27;;;;;;;7.18;3.13;;;31.80;1.00;;;;;;4991605;28;20238;-75
2023/10/09 13:08:56;;;;;;;6.72;3.13;;;32.80;1.00;;;;;;4991533;28;20183;-74
2023/10/09 13:11:25;;;;;;;9.32;2.92;;;31.20;1.00;;;;;;4990432;28;20211;-74
2023/10/09 13:13:51;;;;;;;4.88;2.72;;;;;;;;;;4991762;28;20171;-74
2023/10/09 13:16:24;;;;;;;14.45;3.00;;;31.40;1.00;;;;;;4991519;28;20178;-75
2023/10/09 13:18:51;;;;;;;6.63;2.90;;;30.80;1.00;;;;;;4991346;28;20182;-75
2023/10/09 13:21:25;;;;;;;10.98;3.47;;;30.70;99.90;;;;;;4991651;28;20240;-75
2023/10/09 13:23:54;;;;;;;10.20;3.10;;;30.70;77.80;;;;;;4991286;28;20174;-75
2023/10/09 13:26:25;;;;;;;8.40;3.55;;;29.90;1.00;;;;;;4990484;28;20167;-74
2023/10/09 13:28:55;;;;;;;4.20;2.60;;;30.60;1.00;;;;;;4977144;28;20186;-75
2023/10/09 13:31:25;;;;;;;11.20;3.00;;;30.80;1.00;;;;;;4971732;28;20242;-75
2023/10/09 13:33:54;;;;;;;8.85;2.75;;;31.50;1.00;;;;;;4971813;28;20177;-75
2023/10/09 13:36:26;;;;;;;14.18;3.20;;;31.30;73.60;;;;;;4971739;28;20318;-75
2023/10/09 13:38:54;;;;;;;4.55;2.90;;;31.80;99.90;;;;;;4971855;28;20172;-75
2023/10/09 13:41:20;;;;;;;6.03;3.08;;;31.60;1.00;;;;;;4971623;28;20199;-76
2023/10/09 13:43:46;;;;;;;8.60;3.28;;;31.10;99.90;;;;;;4971718;28;20199;-75
2023/10/09 13:46:12;;;;;;;8.50;2.90;;;31.20;25.10;;;;;;4971541;28;20658;-76
2023/10/09 13:48:41;;;;;;;7.38;2.95;;;30.30;99.90;;;;;;4986989;28;20190;-76
2023/10/09 13:51:14;;;;;;;6.85;2.85;;;;;;;;;;4994110;28;20268;-76
2023/10/09 13:53:45;;;;;;;9.15;3.58;;;31.50;1.00;;;;;;4975253;28;20171;-76
2023/10/09 13:56:18;;;;;;;6.35;3.20;;;31.70;99.90;;;;;;4990346;28;20185;-76
2023/10/09 13:58:50;;;;;;;5.40;2.92;;;32.50;99.90;;;;;;4994206;28;20166;-76
2023/10/09 14:01:32;;;;;;;4.45;2.95;;;32.10;99.90;;;;;;4994259;28;20572;-75
2023/10/09 14:04:00;;;;;;;5.40;3.05;;;31.80;1.00;;;;;;4994584;28;20182;-76
2023/10/09 14:06:30;;;;;;;7.65;2.70;;;32.20;1.00;;;;;;4993754;28;20221;-76
2023/10/09 14:09:09;;;;;;;6.80;2.88;;;32.40;1.00;;;;;;4994172;28;20198;-75
2023/10/09 14:11:39;;;;;;;8.15;3.30;;;32.00;1.00;;;;;;4993396;28;20214;-76
2023/10/09 14:14:09;;;;;;;8.57;2.92;;;;;;;;;;4994422;28;20171;-74
2023/10/09 14:16:36;;;;;;;7.32;3.20;;;32.50;1.00;;;;;;4994115;28;20179;-75
2023/10/09 14:19:07;;;;;;;5.25;3.08;;;32.40;1.00;;;;;;4992774;28;20170;-75
2023/10/09 14:21:37;;;;;;;5.78;2.88;;;;;;;;;;4993131;28;20188;-76
2023/10/09 14:24:15;;;;;;;6.60;3.35;;;32.60;1.00;;;;;;4976267;28;20602;-76
2023/10/09 14:26:41;;;;;;;7.95;3.28;;;;;;;;;;4993826;28;20253;-76
2023/10/09 14:29:07;;;;;;;6.63;4.00;;;31.80;1.00;;;;;;4993727;28;20218;-77
2023/10/09 14:31:38;;;;;;;8.48;3.38;;;31.70;1.00;;;;;;4975809;28;20594;-75
2023/10/09 14:34:05;;;;;;;6.05;3.25;;;31.60;99.90;;;;;;4993881;28;20202;-76
2023/10/09 14:36:34;;;;;;;6.53;3.35;;;31.80;99.90;;;;;;4993288;28;20221;-76
2023/10/09 14:39:00;;;;;;;5.47;3.50;;;31.90;1.00;;;;;;4993525;28;20220;-76
2023/10/09 14:41:27;;;;;;;10.02;3.85;;;31.30;1.00;;;;;;4993863;28;20198;-76
2023/10/09 14:43:54;;;;;;;11.18;3.80;;;;;;;;;;4993552;28;20670;-76
2023/10/09 14:46:25;;;;;;;5.13;3.45;;;30.00;99.90;;;;;;4993204;28;20174;-76
2023/10/09 14:48:54;;;;;;;6.47;3.85;;;29.70;99.90;;;;;;4993455;28;20174;-76
2023/10/09 14:51:27;;;;;;;7.82;3.40;;;30.20;99.90;;;;;;4993078;28;20210;-76
2023/10/09 14:54:02;;;;;;;10.07;3.72;;;30.30;1.00;;;;;;4978217;28;20197;-76
2023/10/09 14:56:29;;;;;;;6.95;3.80;;;29.70;1.00;;;;;;4992589;28;20201;-76
2023/10/09 14:58:59;;;;;;;6.30;3.97;;;29.50;1.00;;;;;;4992193;28;20649;-75
2023/10/09 15:01:28;;;;;;;10.68;4.47;;;29.90;1.00;;;;;;4975704;28;20178;-76
2023/10/09 15:03:57;;;;;;;8.35;4.18;;;29.80;99.90;;;;;;4992901;28;20174;-76
2023/10/09 15:06:24;;;;;;;6.82;4.00;;;29.00;1.00;;;;;;4991576;28;20269;-76
2023/10/09 15:08:50;;;;;;;7.95;4.45;;;28.30;1.00;;;;;;4992956;28;20175;-75
2023/10/09 15:11:16;;;;;;;8.68;4.32;;;;;;;;;;4992872;28;20217;-76
2023/10/09 15:13:42;;;;;;;7.55;4.03;;;;;;;;;;4991407;28;20175;-75
2023/10/09 15:16:07;;;;;;;9.82;4.68;;;26.90;99.90;;;;;;4973670;28;20207;-76
2023/10/09 15:18:37;;;;;;;9.00;3.78;;;;;;;;;;4977822;28;20176;-76
2023/10/09 15:21:03;;;;;;;8.23;4.20;;;26.10;1.00;;;;;;4978594;28;20368;-76
2023/10/09 15:23:29;;;;;;;6.70;4.05;;;;;;;;;;4992390;28;20258;-75
2023/10/09 15:25:55;;;;;;;10.98;4.88;;;;;;;;;;4991990;28;20171;-76
2023/10/09 15:28:22;;;;;;;12.10;5.55;;;26.40;99.90;;;;;;4992152;28;20619;-75
2023/10/09 15:30:49;;;;;;;12.77;5.55;;;26.50;1.00;;;;;;4973366;28;20229;-75
2023/10/09 15:33:16;;;;;;;11.00;5.10;;;27.00;1.00;;;;;;4992604;28;20183;-76
2023/10/09 15:35:54;;;;;;;9.68;4.90;;;28.40;1.00;;;;;;4974972;28;20178;-75
2023/10/09 15:38:20;;;;;;;12.20;4.15;;;28.30;99.90;;;;;;4972912;28;20639;-75
2023/10/09 15:40:47;;;;;;;10.52;4.38;;;28.60;1.00;;;;;;4985649;28;20227;-75
2023/10/09 15:43:13;;;;;;;7.93;4.00;;;;;;;;;;4955715;28;20226;-75
2023/10/09 15:45:48;;;;;;;12.40;4.40;;;28.20;16.20;;;;;;4955444;28;20183;-75
2023/10/09 15:48:15;;;;;;;8.82;4.32;;;28.00;1.00;;;;;;4988681;28;20170;-75
2023/10/09 15:50:48;;;;;;;7.72;4.45;;;28.40;1.00;;;;;;4991921;28;20207;-75
2023/10/09 15:53:16;;;;;;;10.10;4.53;;;28.50;1.00;;;;;;4992294;28;20183;-75
2023/10/09 15:55:44;;;;;;;9.82;4.78;;;28.30;1.00;;;;;;4992150;28;20175;-75